sensor_id;sensor_type;location;lat;lon;timestamp;pressure;altitude;pressure_sealevel;temperature;humidity
34185;BME280;20454;48.100;11.776;2023-04-03T00:01:12;95925.72;;;3.49;100.00
34185;BME280;20454;48.100;11.776;2023-04-03T00:03:38;95921.56;;;3.46;100.00
34185;BME280;20454;48.100;11.776;2023-04-03T00:06:05;95928.47;;;3.49;100.00
34185;BME280;20454;48.100;11.776;2023-04-03T00:08:35;95928.22;;;3.50;100.00
34185;BME280;20454;48.100;11.776;2023-04-03T00:11:02;95926.25;;;3.51;100.00
34185;BME280;20454;48.100;11.776;2023-04-03T00:13:29;95930.13;;;3.50;100.00
34185;BME280;20454;48.100;11.776;2023-04-03T00:15:54;95921.31;;;3.48;100.00
34185;BME280;20454;48.100;11.776;2023-04-03T00:18:21;95924.06;;;3.48;100.00
34185;BME280;20454;48.100;11.776;2023-04-03T00:20:47;95923.22;;;3.47;100.00
34185;BME280;20454;48.100;11.776;2023-04-03T00:23:13;95926.56;;;3.49;100.00
34185;BME280;20454;48.100;11.776;2023-04-03T00:25:38;95929.00;;;3.51;100.00
34185;BME280;20454;48.100;11.776;2023-04-03T00:28:04;95925.97;;;3.47;100.00
34185;BME280;20454;48.100;11.776;2023-04-03T00:30:30;95932.56;;;3.46;100.00
34185;BME280;20454;48.100;11.776;2023-04-03T00:32:56;95927.06;;;3.46;100.00
34185;BME280;20454;48.100;11.776;2023-04-03T00:35:22;95934.81;;;3.49;100.00
34185;BME280;20454;48.100;11.776;2023-04-03T00:37:50;95929.56;;;3.48;100.00
34185;BME280;20454;48.100;11.776;2023-04-03T00:40:16;95926.56;;;3.49;100.00
34185;BME280;20454;48.100;11.776;2023-04-03T00:42:43;95942.75;;;3.46;100.00
34185;BME280;20454;48.100;11.776;2023-04-03T00:45:22;95940.56;;;3.48;100.00
34185;BME280;20454;48.100;11.776;2023-04-03T00:47:48;95942.47;;;3.47;100.00
34185;BME280;20454;48.100;11.776;2023-04-03T00:50:15;95932.84;;;3.45;100.00
34185;BME280;20454;48.100;11.776;2023-04-03T00:52:41;95930.09;;;3.45;100.00
34185;BME280;20454;48.100;11.776;2023-04-03T00:55:08;95931.75;;;3.46;100.00
34185;BME280;20454;48.100;11.776;2023-04-03T00:57:34;95934.50;;;3.46;100.00
34185;BME280;20454;48.100;11.776;2023-04-03T01:00:09;95928.44;;;3.44;100.00
34185;BME280;20454;48.100;11.776;2023-04-03T01:02:36;95928.44;;;3.44;100.00
34185;BME280;20454;48.100;11.776;2023-04-03T01:05:02;95922.38;;;3.42;100.00
34185;BME280;20454;48.100;11.776;2023-04-03T01:07:32;95931.72;;;3.41;100.00
34185;BME280;20454;48.100;11.776;2023-04-03T01:10:01;95913.25;;;3.31;100.00
34185;BME280;20454;48.100;11.776;2023-04-03T01:12:29;95928.09;;;3.35;100.00
34185;BME280;20454;48.100;11.776;2023-04-03T01:15:01;95928.94;;;3.36;100.00
34185;BME280;20454;48.100;11.776;2023-04-03T01:17:39;95931.94;;;3.34;100.00
34185;BME280;20454;48.100;11.776;2023-04-03T01:25:27;95940.50;;;3.33;100.00
34185;BME280;20454;48.100;11.776;2023-04-03T01:27:53;95947.66;;;3.39;100.00
34185;BME280;20454;48.100;11.776;2023-04-03T01:30:20;95934.44;;;3.36;100.00
34185;BME280;20454;48.100;11.776;2023-04-03T01:32:46;95947.09;;;3.37;100.00
34185;BME280;20454;48.100;11.776;2023-04-03T01:35:12;95945.44;;;3.36;100.00
34185;BME280;20454;48.100;11.776;2023-04-03T01:37:38;95947.63;;;3.34;100.00
34185;BME280;20454;48.100;11.776;2023-04-03T01:40:04;95947.34;;;3.35;100.00
34185;BME280;20454;48.100;11.776;2023-04-03T01:42:31;95944.03;;;3.33;100.00
34185;BME280;20454;48.100;11.776;2023-04-03T01:44:56;95934.69;;;3.29;100.00
34185;BME280;20454;48.100;11.776;2023-04-03T01:47:22;95945.44;;;3.36;100.00
34185;BME280;20454;48.100;11.776;2023-04-03T01:49:48;95947.34;;;3.35;100.00
34185;BME280;20454;48.100;11.776;2023-04-03T01:52:13;95937.75;;;3.38;100.00
34185;BME280;20454;48.100;11.776;2023-04-03T01:54:39;95945.72;;;3.39;100.00
34185;BME280;20454;48.100;11.776;2023-04-03T01:57:05;95944.09;;;3.38;100.00
34185;BME280;20454;48.100;11.776;2023-04-03T01:59:31;95934.44;;;3.36;100.00
34185;BME280;20454;48.100;11.776;2023-04-03T04:02:22;95926.66;;;3.23;100.00
34185;BME280;20454;48.100;11.776;2023-04-03T04:04:48;95935.75;;;3.28;100.00
34185;BME280;20454;48.100;11.776;2023-04-03T04:07:14;95937.16;;;3.26;100.00
34185;BME280;20454;48.100;11.776;2023-04-03T04:09:40;95935.75;;;3.28;100.00
34185;BME280;20454;48.100;11.776;2023-04-03T04:12:05;95943.19;;;3.28;100.00
34185;BME280;20454;48.100;11.776;2023-04-03T04:14:31;95939.06;;;3.25;100.00
34185;BME280;20454;48.100;11.776;2023-04-03T04:16:57;95939.91;;;3.26;100.00
34185;BME280;20454;48.100;11.776;2023-04-03T04:19:22;95940.97;;;3.25;100.00
34185;BME280;20454;48.100;11.776;2023-04-03T04:21:48;95944.28;;;3.27;100.00
34185;BME280;20454;48.100;11.776;2023-04-03T04:24:14;95943.44;;;3.26;100.00
34185;BME280;20454;48.100;11.776;2023-04-03T04:26:39;95933.81;;;3.24;100.00
34185;BME280;20454;48.100;11.776;2023-04-03T04:29:05;95942.06;;;3.24;100.00
34185;BME280;20454;48.100;11.776;2023-04-03T04:31:31;95950.59;;;3.27;100.00
34185;BME280;20454;48.100;11.776;2023-04-03T04:33:57;95942.66;;;3.26;100.00
34185;BME280;20454;48.100;11.776;2023-04-03T04:36:22;95939.91;;;3.26;100.00
34185;BME280;20454;48.100;11.776;2023-04-03T04:38:48;95948.94;;;3.26;100.00
34185;BME280;20454;48.100;11.776;2023-04-03T04:41:13;95939.84;;;3.21;100.00
34185;BME280;20454;48.100;11.776;2023-04-03T04:43:40;95948.66;;;3.23;100.00
34185;BME280;20454;48.100;11.776;2023-04-03T05:35:19;95962.97;;;3.25;100.00
34185;BME280;20454;48.100;11.776;2023-04-03T05:37:45;95969.59;;;3.29;100.00
34185;BME280;20454;48.100;11.776;2023-04-03T05:40:11;95970.72;;;3.33;100.00
34185;BME280;20454;48.100;11.776;2023-04-03T05:42:36;95975.13;;;3.34;100.00
34185;BME280;20454;48.100;11.776;2023-04-03T05:45:02;95976.53;;;3.36;100.00
34185;BME280;20454;48.100;11.776;2023-04-03T05:47:28;95979.28;;;3.41;100.00
34185;BME280;20454;48.100;11.776;2023-04-03T05:49:54;95979.56;;;3.45;100.00
34185;BME280;20454;48.100;11.776;2023-04-03T06:02:42;95962.00;;;3.46;100.00
34185;BME280;20454;48.100;11.776;2023-04-03T06:05:08;95981.59;;;3.59;100.00
34185;BME280;20454;48.100;11.776;2023-04-03T06:07:35;95985.19;;;3.65;100.00
34185;BME280;20454;48.100;11.776;2023-04-03T06:10:01;95985.22;;;3.70;99.73
34185;BME280;20454;48.100;11.776;2023-04-03T06:12:27;95986.63;;;3.72;99.39
34185;BME280;20454;48.100;11.776;2023-04-03T06:14:54;95978.66;;;3.76;99.07
34185;BME280;20454;48.100;11.776;2023-04-03T06:17:20;95981.44;;;3.81;98.44
34185;BME280;20454;48.100;11.776;2023-04-03T06:19:46;95976.50;;;3.83;98.30
34185;BME280;20454;48.100;11.776;2023-04-03T06:22:12;95977.03;;;3.85;97.72
34185;BME280;20454;48.100;11.776;2023-04-03T06:24:38;95974.28;;;3.85;96.99
34185;BME280;20454;48.100;11.776;2023-04-03T06:27:04;95989.16;;;3.94;96.38
34185;BME280;20454;48.100;11.776;2023-04-03T06:29:30;95983.66;;;3.94;96.16
34185;BME280;20454;48.100;11.776;2023-04-03T06:31:55;95980.13;;;3.98;95.95
34185;BME280;20454;48.100;11.776;2023-04-03T06:34:21;95987.28;;;4.04;96.24
34185;BME280;20454;48.100;11.776;2023-04-03T06:36:47;95991.44;;;4.07;95.24
34185;BME280;20454;48.100;11.776;2023-04-03T06:39:19;95989.25;;;4.09;95.09
34185;BME280;20454;48.100;11.776;2023-04-03T06:41:49;95998.88;;;4.11;95.20
34185;BME280;20454;48.100;11.776;2023-04-03T06:44:15;95995.03;;;4.17;95.21
34185;BME280;20454;48.100;11.776;2023-04-03T06:46:42;95999.47;;;4.23;94.29
34185;BME280;20454;48.100;11.776;2023-04-03T06:49:08;96000.28;;;4.19;93.19
34185;BME280;20454;48.100;11.776;2023-04-03T06:51:35;96001.41;;;4.23;92.91
34185;BME280;20454;48.100;11.776;2023-04-03T06:54:01;96000.03;;;4.25;93.00
34185;BME280;20454;48.100;11.776;2023-04-03T06:56:27;96003.63;;;4.31;93.11
34185;BME280;20454;48.100;11.776;2023-04-03T06:58:53;96003.38;;;4.37;92.83
34185;BME280;20454;48.100;11.776;2023-04-03T07:06:34;96003.72;;;4.60;92.10
34185;BME280;20454;48.100;11.776;2023-04-03T07:09:00;96008.66;;;4.68;91.61
34185;BME280;20454;48.100;11.776;2023-04-03T07:11:26;96012.28;;;4.74;90.43
34185;BME280;20454;48.100;11.776;2023-04-03T07:13:52;96013.38;;;4.78;90.02
34185;BME280;20454;48.100;11.776;2023-04-03T07:16:19;96014.22;;;4.78;89.27
34185;BME280;20454;48.100;11.776;2023-04-03T07:18:45;96009.25;;;4.80;89.18
34185;BME280;20454;48.100;11.776;2023-04-03T07:21:11;96006.22;;;4.87;88.96
34185;BME280;20454;48.100;11.776;2023-04-03T07:23:37;96016.44;;;4.91;88.31
34185;BME280;20454;48.100;11.776;2023-04-03T07:26:03;96002.66;;;5.01;88.52
34185;BME280;20454;48.100;11.776;2023-04-03T07:28:28;96020.03;;;5.02;87.54
34185;BME280;20454;48.100;11.776;2023-04-03T07:31:04;96022.50;;;5.08;86.84
34185;BME280;20454;48.100;11.776;2023-04-03T07:33:31;96025.28;;;5.13;86.69
34185;BME280;20454;48.100;11.776;2023-04-03T07:35:57;96033.81;;;5.17;86.12
34185;BME280;20454;48.100;11.776;2023-04-03T07:38:24;96032.72;;;5.18;85.61
34185;BME280;20454;48.100;11.776;2023-04-03T07:40:52;96030.25;;;5.11;85.28
34185;BME280;20454;48.100;11.776;2023-04-03T07:43:19;96032.16;;;5.16;85.19
34185;BME280;20454;48.100;11.776;2023-04-03T07:45:46;96037.13;;;5.24;84.69
34185;BME280;20454;48.100;11.776;2023-04-03T07:48:12;96036.84;;;5.20;83.90
34185;BME280;20454;48.100;11.776;2023-04-03T07:50:40;96037.13;;;5.24;83.91
34185;BME280;20454;48.100;11.776;2023-04-03T07:53:06;96047.88;;;5.35;84.70
34185;BME280;20454;48.100;11.776;2023-04-03T07:55:32;96051.19;;;5.42;83.98
34185;BME280;20454;48.100;11.776;2023-04-03T07:57:57;96046.47;;;5.48;83.95
34185;BME280;20454;48.100;11.776;2023-04-03T08:00:23;96033.53;;;5.53;83.68
34185;BME280;20454;48.100;11.776;2023-04-03T08:02:49;96039.31;;;5.57;82.46
34185;BME280;20454;48.100;11.776;2023-04-03T08:05:20;96053.66;;;5.59;82.87
34185;BME280;20454;48.100;11.776;2023-04-03T08:07:47;96048.16;;;5.59;82.01
34185;BME280;20454;48.100;11.776;2023-04-03T08:10:14;96038.22;;;5.58;81.35
34185;BME280;20454;48.100;11.776;2023-04-03T08:12:40;96036.56;;;5.57;81.61
34185;BME280;20454;48.100;11.776;2023-04-03T08:15:07;96034.88;;;5.61;81.28
34185;BME280;20454;48.100;11.776;2023-04-03T09:40:32;96052.16;;;6.21;74.10
34185;BME280;20454;48.100;11.776;2023-04-03T09:43:03;96056.28;;;6.24;74.46
34185;BME280;20454;48.100;11.776;2023-04-03T09:45:45;96050.47;;;6.30;74.42
34185;BME280;20454;48.100;11.776;2023-04-03T09:50:58;96040.59;;;6.73;74.81
34185;BME280;20454;48.100;11.776;2023-04-03T09:53:36;96049.06;;;6.91;72.13
34185;BME280;20454;48.100;11.776;2023-04-03T09:56:24;96051.69;;;7.11;70.12
34185;BME280;20454;48.100;11.776;2023-04-03T09:59:13;96054.28;;;7.36;69.70
34185;BME280;20454;48.100;11.776;2023-04-03T10:01:42;96048.84;;;7.55;69.36
34185;BME280;20454;48.100;11.776;2023-04-03T10:06:49;96055.38;;;7.69;67.24
34185;BME280;20454;48.100;11.776;2023-04-03T16:02:05;95937.19;;;7.36;45.30
34185;BME280;20454;48.100;11.776;2023-04-03T16:04:33;95937.50;;;7.34;45.75
34185;BME280;20454;48.100;11.776;2023-04-03T16:07:03;95943.06;;;7.34;46.49
34185;BME280;20454;48.100;11.776;2023-04-03T16:09:29;95935.91;;;7.28;46.64
34185;BME280;20454;48.100;11.776;2023-04-03T16:11:55;95941.44;;;7.28;46.30
34185;BME280;20454;48.100;11.776;2023-04-03T16:14:21;95955.56;;;7.27;46.89
34185;BME280;20454;48.100;11.776;2023-04-03T16:16:47;95955.91;;;7.20;45.14
34185;BME280;20454;48.100;11.776;2023-04-03T16:42:32;95950.81;;;6.65;47.30
34185;BME280;20454;48.100;11.776;2023-04-03T16:44:58;95953.88;;;6.59;47.55
34185;BME280;20454;48.100;11.776;2023-04-03T16:47:26;95964.16;;;6.53;47.68
34185;BME280;20454;48.100;11.776;2023-04-03T16:49:51;95971.34;;;6.49;48.52
34185;BME280;20454;48.100;11.776;2023-04-03T16:52:17;95971.13;;;6.41;49.33
34185;BME280;20454;48.100;11.776;2023-04-03T16:54:43;95972.00;;;6.31;49.21
34185;BME280;20454;48.100;11.776;2023-04-03T16:57:08;95980.91;;;6.18;50.10
34185;BME280;20454;48.100;11.776;2023-04-03T16:59:34;95982.06;;;6.07;51.17
34185;BME280;20454;48.100;11.776;2023-04-03T17:02:00;95977.09;;;6.04;51.03
34185;BME280;20454;48.100;11.776;2023-04-03T17:04:26;95979.88;;;5.94;51.52
34185;BME280;20454;48.100;11.776;2023-04-03T17:06:51;95978.56;;;5.87;52.36
34185;BME280;20454;48.100;11.776;2023-04-03T17:09:17;95990.72;;;5.81;51.98
34185;BME280;20454;48.100;11.776;2023-04-03T17:11:43;95986.84;;;5.72;51.63
34185;BME280;20454;48.100;11.776;2023-04-03T17:14:08;95986.06;;;5.56;52.37
34185;BME280;20454;48.100;11.776;2023-04-03T17:16:35;95995.44;;;5.50;53.40
34185;BME280;20454;48.100;11.776;2023-04-03T17:19:02;95992.69;;;5.45;54.08
34185;BME280;20454;48.100;11.776;2023-04-03T17:21:28;95997.13;;;5.41;54.68
34185;BME280;20454;48.100;11.776;2023-04-03T17:23:57;95992.13;;;5.38;53.60
34185;BME280;20454;48.100;11.776;2023-04-03T17:26:25;96003.75;;;5.30;54.81
34185;BME280;20454;48.100;11.776;2023-04-03T17:28:51;95996.56;;;5.24;53.64
34185;BME280;20454;48.100;11.776;2023-04-03T17:31:17;95992.44;;;5.12;53.07
34185;BME280;20454;48.100;11.776;2023-04-03T17:33:43;96005.69;;;5.10;53.06
34185;BME280;20454;48.100;11.776;2023-04-03T17:36:09;95998.78;;;5.02;52.89
34185;BME280;20454;48.100;11.776;2023-04-03T17:38:35;96005.66;;;5.00;52.36
34185;BME280;20454;48.100;11.776;2023-04-03T17:41:03;96007.88;;;4.98;52.12
